Main page
METAR-TAF:

METAR-TAF

Airports :

Termez Airport

Termez, Uzbekistan

latitude: 37-14N, longitude: 067-16E, elevation: 302 m

Current weather observation

The report was made 30 minutes ago, at 04:00 UTC
Wind 6 kt from the West/Southwest, varying between Southwest and West/Northwest
Temperature 31°C
Humidity 29%
Pressure 998 hPa
Visibility 10 km or more
no clouds below 1500 m and no cumulonimbus

METAR: UTST 220400Z 25006KT 220V290 CAVOK 31/11 Q0998 R88/CLRD70 NOSIG

Time: 09:30 (04:30 UTC)

Forecast

The report was made 5 hours and 30 minutes ago, at 23:00 UTC
Forecast valid from 22 at 00 UTC to 22 at 24 UTC
Wind 6 kt from the Southwest with gusts up to 16 kt
Visibility: 6000 m
Temporary
from 22 at 03 UTC to 22 at 14 UTC
Wind 12 kt from the West with gusts up to 22 kt
Visibility: 3000 m
haze

TAF: UTST 212300Z 2200/2224 23006G16KT 6000 NSC TX45/2211Z TEMPO 2203/2214 27012G22KT 3000 HZ

Weather observations and forecasts of more than 4000 airports (METAR and TAF reports).

The available stations are represented by yellow and red dots on the map.

Hover mouse over dot to see the name of the station.

Then click to see weather observations and forecasts.

To change the map : click on the green buttons with a black cross to zoom in, on the green button with a dash to zoom out, or on the green arrows for adjacent maps.


METAR-TAF: